createdAt,value
2022-12-09T00:00:38.685Z,999.58
2022-12-09T00:01:38.678Z,999.59
2022-12-09T00:02:38.831Z,999.62
2022-12-09T00:03:38.537Z,999.60
2022-12-09T00:04:38.582Z,999.60
2022-12-09T00:05:38.350Z,999.59
2022-12-09T00:06:38.385Z,999.58
2022-12-09T00:07:38.436Z,999.59
2022-12-09T00:08:38.487Z,999.56
2022-12-09T00:09:38.258Z,999.56
2022-12-09T00:10:38.273Z,999.56
2022-12-09T00:11:38.412Z,999.56
2022-12-09T00:12:38.154Z,999.52
2022-12-09T00:13:38.426Z,999.50
2022-12-09T00:14:38.115Z,999.54
2022-12-09T00:15:38.144Z,999.52
2022-12-09T00:16:38.213Z,999.49
2022-12-09T00:17:38.321Z,999.51
2022-12-09T00:18:38.245Z,999.54
2022-12-09T00:19:38.221Z,999.55
2022-12-09T00:20:38.183Z,999.53
2022-12-09T00:21:38.100Z,999.62
2022-12-09T00:22:37.939Z,999.57
2022-12-09T00:23:37.877Z,999.66
2022-12-09T00:24:37.854Z,999.68
2022-12-09T00:25:37.828Z,999.69
2022-12-09T00:26:38.032Z,999.70
2022-12-09T00:27:37.788Z,999.67
2022-12-09T00:28:37.755Z,999.70
2022-12-09T00:29:37.756Z,999.73
2022-12-09T00:30:37.806Z,999.69
2022-12-09T00:31:37.782Z,999.67
2022-12-09T00:32:37.971Z,999.65
2022-12-09T00:33:37.747Z,999.65
2022-12-09T00:34:37.658Z,999.62
2022-12-09T00:35:37.778Z,999.63
2022-12-09T00:36:37.717Z,999.63
2022-12-09T00:37:37.667Z,999.66
2022-12-09T00:38:37.786Z,999.62
2022-12-09T00:39:37.477Z,999.62
2022-12-09T00:40:37.493Z,999.63
2022-12-09T00:41:37.537Z,999.64
2022-12-09T00:42:37.626Z,999.61
2022-12-09T00:43:37.523Z,999.63
2022-12-09T00:44:37.355Z,999.66
2022-12-09T00:45:37.357Z,999.65
2022-12-09T00:46:37.377Z,999.64
2022-12-09T00:47:37.398Z,999.66
2022-12-09T00:48:37.293Z,999.64
2022-12-09T00:49:37.260Z,999.66
2022-12-09T00:50:37.201Z,999.68
2022-12-09T00:51:37.399Z,999.69
2022-12-09T00:52:37.193Z,999.67
2022-12-09T00:53:37.197Z,999.71
2022-12-09T00:54:37.214Z,999.66
2022-12-09T00:55:37.349Z,999.70
2022-12-09T00:56:37.332Z,999.69
2022-12-09T00:57:37.117Z,999.67
2022-12-09T00:58:37.007Z,999.65
2022-12-09T00:59:37.014Z,999.65
2022-12-09T01:00:36.954Z,999.64
2022-12-09T01:01:37.316Z,999.67
2022-12-09T01:02:37.390Z,999.65
2022-12-09T01:03:37.072Z,999.65
2022-12-09T01:04:37.231Z,999.64
2022-12-09T01:05:36.919Z,999.62
2022-12-09T01:06:36.802Z,999.64
2022-12-09T01:07:36.973Z,999.58
2022-12-09T01:08:39.079Z,999.65
2022-12-09T01:09:36.805Z,999.58
2022-12-09T01:10:36.850Z,999.59
2022-12-09T01:11:36.680Z,999.63
2022-12-09T01:12:36.675Z,999.60
2022-12-09T01:13:36.621Z,999.62
2022-12-09T01:14:36.596Z,999.62
2022-12-09T01:15:36.703Z,999.65
2022-12-09T01:16:36.669Z,999.67
2022-12-09T01:17:36.829Z,999.64
2022-12-09T01:18:36.524Z,999.70
2022-12-09T01:19:36.472Z,999.67
2022-12-09T01:20:36.459Z,999.70
2022-12-09T01:21:36.431Z,999.72
2022-12-09T01:22:36.400Z,999.71
2022-12-09T01:23:36.567Z,999.70
2022-12-09T01:24:36.347Z,999.71
2022-12-09T01:25:36.320Z,999.73
2022-12-09T01:26:36.358Z,999.72
2022-12-09T01:27:36.274Z,999.70
2022-12-09T01:28:36.489Z,999.70
2022-12-09T01:29:36.283Z,999.75
2022-12-09T01:30:36.561Z,999.80
2022-12-09T01:31:36.642Z,999.77
2022-12-09T01:32:36.541Z,999.76
2022-12-09T01:33:36.159Z,999.79
2022-12-09T01:34:36.462Z,999.77
2022-12-09T01:35:36.081Z,999.80
2022-12-09T01:36:36.242Z,999.76
2022-12-09T01:37:36.142Z,999.78
2022-12-09T01:38:36.343Z,999.76
2022-12-09T01:39:36.263Z,999.74
2022-12-09T01:40:35.943Z,999.75
2022-12-09T01:41:36.009Z,999.72
2022-12-09T01:42:36.124Z,999.75
2022-12-09T01:43:35.905Z,999.70
2022-12-09T01:44:35.877Z,999.72
2022-12-09T01:45:35.862Z,999.71
2022-12-09T01:46:35.899Z,999.71
2022-12-09T01:47:35.890Z,999.68
2022-12-09T01:48:35.786Z,999.70
2022-12-09T01:49:35.770Z,999.70
2022-12-09T01:50:35.700Z,999.69
2022-12-09T01:51:35.673Z,999.70
2022-12-09T01:52:35.813Z,999.69
2022-12-09T01:53:35.635Z,999.70
2022-12-09T01:54:35.878Z,999.71
2022-12-09T01:55:35.565Z,999.70
2022-12-09T01:56:35.549Z,999.70
2022-12-09T01:57:35.817Z,999.68
2022-12-09T01:58:35.544Z,999.66
2022-12-09T01:59:35.765Z,999.66
2022-12-09T02:00:35.479Z,999.69
2022-12-09T02:01:35.802Z,999.66
2022-12-09T02:02:35.613Z,999.68
2022-12-09T02:03:35.663Z,999.71
2022-12-09T02:04:35.818Z,999.67
2022-12-09T02:05:35.488Z,999.66
2022-12-09T02:06:35.336Z,999.65
2022-12-09T02:07:35.529Z,999.67
2022-12-09T02:08:35.407Z,999.67
2022-12-09T02:09:35.588Z,999.64
2022-12-09T02:10:35.347Z,999.66
2022-12-09T02:11:35.169Z,999.65
2022-12-09T02:12:35.143Z,999.64
2022-12-09T02:13:35.121Z,999.63
2022-12-09T02:14:35.279Z,999.60
2022-12-09T02:15:35.068Z,999.58
2022-12-09T02:16:35.109Z,999.60
2022-12-09T02:17:35.164Z,999.63
2022-12-09T02:18:35.008Z,999.57
2022-12-09T02:19:34.988Z,999.59
2022-12-09T02:20:35.003Z,999.60
2022-12-09T02:21:35.129Z,999.55
2022-12-09T02:22:34.892Z,999.58
2022-12-09T02:23:35.051Z,999.55
2022-12-09T02:24:34.907Z,999.56
2022-12-09T02:25:34.816Z,999.53
2022-12-09T02:26:34.791Z,999.52
2022-12-09T02:27:34.766Z,999.52
2022-12-09T02:28:34.741Z,999.53
2022-12-09T02:29:34.713Z,999.53
2022-12-09T02:30:34.717Z,999.55
2022-12-09T02:31:34.746Z,999.52
2022-12-09T02:32:35.100Z,999.51
2022-12-09T02:33:34.691Z,999.52
2022-12-09T02:34:34.736Z,999.51
2022-12-09T02:35:34.782Z,999.50
2022-12-09T02:36:34.546Z,999.48
2022-12-09T02:37:34.509Z,999.53
2022-12-09T02:38:34.672Z,999.49
2022-12-09T02:39:34.461Z,999.49
2022-12-09T02:40:34.697Z,999.50
2022-12-09T02:41:34.632Z,999.50
2022-12-09T02:42:34.638Z,999.49
2022-12-09T02:43:34.357Z,999.50
2022-12-09T02:44:34.335Z,999.47
2022-12-09T02:45:34.668Z,999.48
2022-12-09T02:46:34.406Z,999.49
2022-12-09T02:47:34.823Z,999.46
2022-12-09T02:48:34.276Z,999.47
2022-12-09T02:49:34.394Z,999.44
2022-12-09T02:50:34.189Z,999.42
2022-12-09T02:51:34.154Z,999.43
2022-12-09T02:52:34.133Z,999.43
2022-12-09T02:53:34.274Z,999.46
2022-12-09T02:54:34.355Z,999.45
2022-12-09T02:55:34.297Z,999.42
2022-12-09T02:56:34.275Z,999.43
2022-12-09T02:57:34.006Z,999.44
2022-12-09T02:58:34.013Z,999.41
2022-12-09T02:59:33.951Z,999.42
2022-12-09T03:00:34.193Z,999.42
2022-12-09T03:01:33.951Z,999.44
2022-12-09T03:02:34.389Z,999.47
2022-12-09T03:03:34.310Z,999.45
2022-12-09T03:04:33.927Z,999.38
2022-12-09T03:05:34.079Z,999.38
2022-12-09T03:06:33.779Z,999.38
2022-12-09T03:07:33.747Z,999.34
2022-12-09T03:08:34.087Z,999.30
2022-12-09T03:09:34.025Z,999.30
2022-12-09T03:10:33.798Z,999.26
2022-12-09T03:11:33.657Z,999.28
2022-12-09T03:12:33.696Z,999.27
2022-12-09T03:13:33.932Z,999.26
2022-12-09T03:14:33.604Z,999.24
2022-12-09T03:15:33.548Z,999.28
2022-12-09T03:16:33.623Z,999.24
2022-12-09T03:17:33.616Z,999.29
2022-12-09T03:18:33.511Z,999.28
2022-12-09T03:19:33.785Z,999.28
2022-12-09T03:20:33.458Z,999.28
2022-12-09T03:21:33.436Z,999.22
2022-12-09T03:22:33.373Z,999.25
2022-12-09T03:23:33.341Z,999.25
2022-12-09T03:24:33.354Z,999.26
2022-12-09T03:25:33.292Z,999.25
2022-12-09T03:26:33.273Z,999.25
2022-12-09T03:27:33.249Z,999.25
2022-12-09T03:28:33.549Z,999.22
2022-12-09T03:29:33.197Z,999.22
2022-12-09T03:30:33.380Z,999.19
2022-12-09T03:31:33.499Z,999.20
2022-12-09T03:32:33.210Z,999.20
2022-12-09T03:33:33.471Z,999.19
2022-12-09T03:34:33.442Z,999.15
2022-12-09T03:35:33.038Z,999.18
2022-12-09T03:36:33.097Z,999.20
2022-12-09T03:37:32.987Z,999.16
2022-12-09T03:38:33.220Z,999.14
2022-12-09T03:39:32.989Z,999.12
2022-12-09T03:40:33.047Z,999.14
2022-12-09T03:41:32.890Z,999.11
2022-12-09T03:42:33.040Z,999.08
2022-12-09T03:43:32.834Z,999.09
2022-12-09T03:44:33.107Z,999.08
2022-12-09T03:45:33.252Z,999.06
2022-12-09T03:46:33.070Z,999.11
2022-12-09T03:47:32.894Z,999.08
2022-12-09T03:48:33.034Z,999.06
2022-12-09T03:49:32.697Z,999.13
2022-12-09T03:50:32.727Z,999.14
2022-12-09T03:51:32.832Z,999.08
2022-12-09T03:52:32.968Z,999.08
2022-12-09T03:53:32.859Z,999.07
2022-12-09T03:54:32.798Z,999.09
2022-12-09T03:55:32.533Z,999.06
2022-12-09T03:56:32.855Z,999.04
2022-12-09T03:57:32.474Z,999.06
2022-12-09T03:58:32.725Z,999.04
2022-12-09T03:59:32.437Z,999.03
2022-12-09T04:00:32.700Z,999.00
2022-12-09T04:01:32.913Z,999.04
2022-12-09T04:02:32.485Z,998.98
2022-12-09T04:03:32.865Z,998.98
2022-12-09T04:04:32.339Z,999.03
2022-12-09T04:05:32.603Z,999.04
2022-12-09T04:06:32.277Z,999.03
2022-12-09T04:07:32.220Z,998.98
2022-12-09T04:08:32.296Z,998.98
2022-12-09T04:09:32.484Z,998.99
2022-12-09T04:10:32.150Z,998.99
2022-12-09T04:11:32.123Z,998.96
2022-12-09T04:12:32.100Z,998.98
2022-12-09T04:13:32.072Z,998.99
2022-12-09T04:14:32.335Z,998.94
2022-12-09T04:15:32.208Z,998.97
2022-12-09T04:16:32.410Z,998.97
2022-12-09T04:17:32.070Z,998.97
2022-12-09T04:18:32.170Z,999.00
2022-12-09T04:19:32.018Z,998.96
2022-12-09T04:20:32.097Z,998.93
2022-12-09T04:21:31.868Z,998.93
2022-12-09T04:22:31.884Z,998.92
2022-12-09T04:23:31.858Z,998.95
2022-12-09T04:24:31.790Z,998.90
2022-12-09T04:25:32.044Z,998.93
2022-12-09T04:26:31.746Z,998.94
2022-12-09T04:27:31.915Z,998.94
2022-12-09T04:28:31.819Z,998.97
2022-12-09T04:29:31.930Z,998.94
2022-12-09T04:30:32.099Z,998.94
2022-12-09T04:31:31.693Z,998.92
2022-12-09T04:32:32.067Z,998.92
2022-12-09T04:33:31.854Z,998.89
2022-12-09T04:34:31.555Z,998.90
2022-12-09T04:35:31.514Z,998.88
2022-12-09T04:36:31.792Z,998.88
2022-12-09T04:37:31.546Z,998.90
2022-12-09T04:38:31.593Z,998.90
2022-12-09T04:39:31.452Z,998.92
2022-12-09T04:40:31.386Z,998.93
2022-12-09T04:41:31.364Z,998.90
2022-12-09T04:42:31.342Z,998.89
2022-12-09T04:43:31.500Z,998.89
2022-12-09T04:44:31.592Z,998.87
2022-12-09T04:45:31.263Z,998.89
2022-12-09T04:46:31.264Z,998.85
2022-12-09T04:47:31.336Z,998.83
2022-12-09T04:48:31.185Z,998.82
2022-12-09T04:49:31.156Z,998.85
2022-12-09T04:50:31.135Z,998.81
2022-12-09T04:51:37.506Z,998.86
2022-12-09T04:52:31.090Z,998.88
2022-12-09T04:53:31.114Z,998.91
2022-12-09T04:54:31.249Z,998.89
2022-12-09T04:55:31.238Z,998.88
2022-12-09T04:56:31.024Z,998.89
2022-12-09T04:57:30.975Z,998.92
2022-12-09T04:58:31.203Z,998.91
2022-12-09T04:59:30.987Z,998.90
2022-12-09T05:00:31.224Z,998.88
2022-12-09T05:01:31.774Z,998.87
2022-12-09T05:02:30.926Z,998.89
2022-12-09T05:03:30.969Z,998.89
2022-12-09T05:04:31.272Z,998.90
2022-12-09T05:05:31.028Z,998.87
2022-12-09T05:06:31.230Z,998.87
2022-12-09T05:07:31.167Z,998.88
2022-12-09T05:08:31.864Z,998.84
2022-12-09T05:09:31.070Z,998.87
2022-12-09T05:10:30.964Z,998.87
2022-12-09T05:11:30.729Z,998.84
2022-12-09T05:12:30.817Z,998.86
2022-12-09T05:13:30.885Z,998.85
2022-12-09T05:14:30.795Z,998.85
2022-12-09T05:15:30.571Z,998.81
2022-12-09T05:16:30.609Z,998.83
2022-12-09T05:17:30.610Z,998.86
2022-12-09T05:18:30.707Z,998.87
2022-12-09T05:19:30.854Z,998.86
2022-12-09T05:20:30.626Z,998.87
2022-12-09T05:21:30.832Z,998.91
2022-12-09T05:22:30.416Z,998.89
2022-12-09T05:23:30.330Z,998.90
2022-12-09T05:24:30.286Z,998.90
2022-12-09T05:25:30.340Z,998.87
2022-12-09T05:26:30.636Z,998.87
2022-12-09T05:27:30.411Z,998.88
2022-12-09T05:28:30.266Z,998.86
2022-12-09T05:29:30.504Z,998.86
2022-12-09T05:30:30.176Z,998.86
2022-12-09T05:31:30.416Z,998.81
2022-12-09T05:32:30.171Z,998.82
2022-12-09T05:33:30.368Z,998.83
2022-12-09T05:34:30.182Z,998.80
2022-12-09T05:35:30.054Z,998.77
2022-12-09T05:36:30.407Z,998.78
2022-12-09T05:37:30.262Z,998.75
2022-12-09T05:38:30.034Z,998.78
2022-12-09T05:39:30.354Z,998.74
2022-12-09T05:40:29.878Z,998.74
2022-12-09T05:41:29.862Z,998.73
2022-12-09T05:42:29.994Z,998.74
2022-12-09T05:43:30.156Z,998.77
2022-12-09T05:44:30.164Z,998.73
2022-12-09T05:45:30.126Z,998.69
2022-12-09T05:46:29.995Z,998.70
2022-12-09T05:47:29.993Z,998.71
2022-12-09T05:48:30.186Z,998.75
2022-12-09T05:49:30.296Z,998.71
2022-12-09T05:50:29.789Z,998.67
2022-12-09T05:51:29.992Z,998.70
2022-12-09T05:52:29.685Z,998.74
2022-12-09T05:53:29.798Z,998.72
2022-12-09T05:54:29.655Z,998.75
2022-12-09T05:55:29.864Z,998.80
2022-12-09T05:56:30.035Z,998.74
2022-12-09T05:57:29.723Z,998.75
2022-12-09T05:58:29.647Z,998.73
2022-12-09T05:59:29.483Z,998.78
2022-12-09T06:00:29.758Z,998.77
2022-12-09T06:01:29.952Z,998.77
2022-12-09T06:02:29.603Z,998.80
2022-12-09T06:03:29.838Z,998.80
2022-12-09T06:04:29.807Z,998.77
2022-12-09T06:05:29.515Z,998.82
2022-12-09T06:06:29.785Z,998.84
2022-12-09T06:07:29.532Z,998.83
2022-12-09T06:08:29.702Z,998.82
2022-12-09T06:09:29.336Z,998.85
2022-12-09T06:10:29.598Z,998.83
2022-12-09T06:11:29.567Z,998.85
2022-12-09T06:12:29.258Z,998.85
2022-12-09T06:13:29.229Z,998.87
2022-12-09T06:14:29.204Z,998.88
2022-12-09T06:15:33.086Z,998.83
2022-12-09T06:16:29.233Z,998.85
2022-12-09T06:17:29.331Z,998.84
2022-12-09T06:18:29.123Z,998.81
2022-12-09T06:19:29.088Z,998.84
2022-12-09T06:20:29.212Z,998.84
2022-12-09T06:21:29.194Z,998.82
2022-12-09T06:22:29.266Z,998.81
2022-12-09T06:23:28.885Z,998.80
2022-12-09T06:24:28.767Z,998.81
2022-12-09T06:25:29.105Z,998.83
2022-12-09T06:26:28.962Z,998.79
2022-12-09T06:27:28.812Z,998.78
2022-12-09T06:28:29.025Z,998.80
2022-12-09T06:29:28.857Z,998.82
2022-12-09T06:30:28.664Z,998.77
2022-12-09T06:31:29.107Z,998.79
2022-12-09T06:32:28.799Z,998.81
2022-12-09T06:33:53.634Z,998.79
2022-12-09T06:34:28.992Z,998.79
2022-12-09T06:35:28.663Z,998.77
2022-12-09T06:36:29.108Z,998.81
2022-12-09T06:37:28.638Z,998.80
2022-12-09T06:38:28.461Z,998.80
2022-12-09T06:39:28.544Z,998.79
2022-12-09T06:40:28.429Z,998.79
2022-12-09T06:41:28.350Z,998.81
2022-12-09T06:42:28.424Z,998.80
2022-12-09T06:43:28.381Z,998.82
2022-12-09T06:44:28.553Z,998.81
2022-12-09T06:45:28.301Z,998.77
2022-12-09T06:46:28.571Z,998.78
2022-12-09T06:47:28.423Z,998.77
2022-12-09T06:48:28.658Z,998.76
2022-12-09T06:49:28.549Z,998.79
2022-12-09T06:50:28.196Z,998.77
2022-12-09T06:51:28.255Z,998.76
2022-12-09T06:52:28.215Z,998.79
2022-12-09T06:53:28.312Z,998.77
2022-12-09T06:54:28.004Z,998.75
2022-12-09T06:55:28.116Z,998.79
2022-12-09T06:56:28.328Z,998.79
2022-12-09T06:57:28.063Z,998.74
2022-12-09T06:58:27.922Z,998.71
2022-12-09T06:59:28.159Z,998.71
2022-12-09T07:00:28.380Z,998.72
2022-12-09T07:01:28.110Z,998.78
2022-12-09T07:02:31.336Z,998.74
2022-12-09T07:03:28.246Z,998.78
2022-12-09T07:04:28.149Z,998.78
2022-12-09T07:05:27.993Z,998.78
2022-12-09T07:06:28.001Z,998.81
2022-12-09T07:07:27.716Z,998.80
2022-12-09T07:08:27.736Z,998.82
2022-12-09T07:09:27.863Z,998.75
2022-12-09T07:10:28.138Z,998.84
2022-12-09T07:11:28.179Z,998.81
2022-12-09T07:12:27.874Z,998.82
2022-12-09T07:13:27.650Z,998.84
2022-12-09T07:14:27.634Z,998.85
2022-12-09T07:15:27.592Z,998.86
2022-12-09T07:16:27.745Z,998.88
2022-12-09T07:17:28.029Z,998.88
2022-12-09T07:18:27.693Z,998.87
2022-12-09T07:19:27.659Z,998.89
2022-12-09T07:20:27.531Z,998.92
2022-12-09T07:21:27.640Z,998.96
2022-12-09T07:22:27.759Z,998.93
2022-12-09T07:23:27.320Z,998.97
2022-12-09T07:24:27.265Z,999.03
2022-12-09T07:25:27.315Z,999.01
2022-12-09T07:26:27.398Z,999.03
2022-12-09T07:27:27.411Z,998.99
2022-12-09T07:28:27.525Z,999.02
2022-12-09T07:29:27.214Z,999.01
2022-12-09T07:30:27.195Z,998.99
2022-12-09T07:31:27.573Z,999.01
2022-12-09T07:32:27.352Z,998.99
2022-12-09T07:33:27.118Z,998.99
2022-12-09T07:34:27.512Z,999.03
2022-12-09T07:35:27.074Z,999.02
2022-12-09T07:36:27.169Z,999.00
2022-12-09T07:37:27.027Z,999.02
2022-12-09T07:38:27.026Z,999.03
2022-12-09T07:39:26.930Z,999.06
2022-12-09T07:40:27.195Z,999.06
2022-12-09T07:41:27.309Z,999.09
2022-12-09T07:42:26.956Z,999.08
2022-12-09T07:43:27.068Z,999.13
2022-12-09T07:44:26.836Z,999.14
2022-12-09T07:45:26.966Z,999.09
2022-12-09T07:46:26.798Z,999.08
2022-12-09T07:47:27.113Z,999.13
2022-12-09T07:48:26.949Z,999.16
2022-12-09T07:49:26.775Z,999.13
2022-12-09T07:50:26.877Z,999.11
2022-12-09T07:51:26.848Z,999.13
2022-12-09T07:52:26.561Z,999.13
2022-12-09T07:53:26.601Z,999.08
2022-12-09T07:54:26.574Z,999.11
2022-12-09T07:55:26.876Z,999.11
2022-12-09T07:56:26.870Z,999.10
2022-12-09T07:57:26.758Z,999.12
2022-12-09T07:58:26.409Z,999.13
2022-12-09T07:59:26.567Z,999.13
2022-12-09T08:00:26.506Z,999.15
2022-12-09T08:01:26.751Z,999.09
2022-12-09T08:02:26.413Z,999.14
2022-12-09T08:03:26.381Z,999.15
2022-12-09T08:04:26.469Z,999.15
2022-12-09T08:05:26.508Z,999.15
2022-12-09T08:06:26.993Z,999.19
2022-12-09T08:07:26.533Z,999.22
2022-12-09T08:08:26.593Z,999.13
2022-12-09T08:09:26.318Z,999.16
2022-12-09T08:10:26.313Z,999.11
2022-12-09T08:11:26.488Z,999.11
2022-12-09T08:12:26.139Z,999.15
2022-12-09T08:13:26.071Z,999.12
2022-12-09T08:14:26.444Z,999.15
2022-12-09T08:15:26.183Z,999.17
2022-12-09T08:16:26.513Z,999.19
2022-12-09T08:17:26.025Z,999.18
2022-12-09T08:18:26.009Z,999.23
2022-12-09T08:19:26.282Z,999.22
2022-12-09T08:20:29.319Z,999.30
2022-12-09T08:21:26.272Z,999.24
2022-12-09T08:22:26.086Z,999.22
2022-12-09T08:23:25.764Z,999.22
2022-12-09T08:24:26.084Z,999.23
2022-12-09T08:25:25.856Z,999.23
2022-12-09T08:26:25.734Z,999.19
2022-12-09T08:27:26.120Z,999.19
2022-12-09T08:28:26.165Z,999.22
2022-12-09T08:29:25.786Z,999.23
2022-12-09T08:30:26.282Z,999.24
2022-12-09T08:31:25.793Z,999.26
2022-12-09T08:32:25.820Z,999.28
2022-12-09T08:33:25.743Z,999.27
2022-12-09T08:34:25.707Z,999.30
2022-12-09T08:35:25.631Z,999.30
2022-12-09T08:36:25.654Z,999.28
2022-12-09T08:37:25.454Z,999.26
2022-12-09T08:38:25.747Z,999.28
2022-12-09T08:39:25.724Z,999.21
2022-12-09T08:40:25.564Z,999.22
2022-12-09T08:41:25.698Z,999.22
2022-12-09T08:42:25.533Z,999.25
2022-12-09T08:43:25.273Z,999.28
2022-12-09T08:44:25.337Z,999.28
2022-12-09T08:45:25.614Z,999.30
2022-12-09T08:46:25.685Z,999.30
2022-12-09T08:47:25.358Z,999.33
2022-12-09T08:48:25.571Z,999.30
2022-12-09T08:49:25.333Z,999.31
2022-12-09T08:50:25.193Z,999.29
2022-12-09T08:51:25.499Z,999.28
2022-12-09T08:52:25.435Z,999.26
2022-12-09T08:53:25.172Z,999.28
2022-12-09T08:54:25.597Z,999.25
2022-12-09T08:55:25.314Z,999.25
2022-12-09T08:56:25.166Z,999.26
2022-12-09T08:57:25.134Z,999.26
2022-12-09T08:58:25.114Z,999.27
2022-12-09T08:59:25.367Z,999.27
2022-12-09T09:00:25.049Z,999.29
2022-12-09T09:01:25.076Z,999.33
2022-12-09T09:02:25.407Z,999.30
2022-12-09T09:03:25.363Z,999.33
2022-12-09T09:04:25.210Z,999.32
2022-12-09T09:05:25.005Z,999.32
2022-12-09T09:06:25.118Z,999.38
2022-12-09T09:07:24.912Z,999.35
2022-12-09T09:08:25.104Z,999.33
2022-12-09T09:09:24.804Z,999.35
2022-12-09T09:10:25.028Z,999.36
2022-12-09T09:11:25.117Z,999.36
2022-12-09T09:12:24.753Z,999.36
2022-12-09T09:13:24.569Z,999.39
2022-12-09T09:14:24.486Z,999.36
2022-12-09T09:15:24.559Z,999.35
2022-12-09T09:16:24.760Z,999.38
2022-12-09T09:17:24.796Z,999.37
2022-12-09T09:18:24.439Z,999.38
2022-12-09T09:19:24.889Z,999.39
2022-12-09T09:20:24.815Z,999.41
2022-12-09T09:21:24.414Z,999.43
2022-12-09T09:22:24.339Z,999.45
2022-12-09T09:23:24.356Z,999.46
2022-12-09T09:24:24.501Z,999.47
2022-12-09T09:25:24.238Z,999.44
2022-12-09T09:26:24.625Z,999.41
2022-12-09T09:27:24.392Z,999.46
2022-12-09T09:28:30.482Z,999.48
2022-12-09T09:29:24.797Z,999.43
2022-12-09T09:30:24.549Z,999.46
2022-12-09T09:31:24.259Z,999.47
2022-12-09T09:32:24.406Z,999.47
2022-12-09T09:33:24.284Z,999.45
2022-12-09T09:34:24.302Z,999.45
2022-12-09T09:35:24.071Z,999.46
2022-12-09T09:36:24.650Z,999.43
2022-12-09T09:37:24.003Z,999.44
2022-12-09T09:38:24.366Z,999.44
2022-12-09T09:39:24.017Z,999.40
2022-12-09T09:40:24.234Z,999.41
2022-12-09T09:41:24.007Z,999.38
2022-12-09T09:42:24.234Z,999.38
2022-12-09T09:43:23.874Z,999.44
2022-12-09T09:44:24.089Z,999.40
2022-12-09T09:45:24.092Z,999.39
2022-12-09T09:46:24.232Z,999.41
2022-12-09T09:47:24.250Z,999.41
2022-12-09T09:48:23.885Z,999.45
2022-12-09T09:49:23.876Z,999.45
2022-12-09T09:50:24.121Z,999.44
2022-12-09T09:51:23.658Z,999.45
2022-12-09T09:52:23.988Z,999.49
2022-12-09T09:53:23.543Z,999.45
2022-12-09T09:54:23.585Z,999.46
2022-12-09T09:55:23.914Z,999.50
2022-12-09T09:56:23.487Z,999.45
2022-12-09T09:57:23.520Z,999.43
2022-12-09T09:58:23.877Z,999.39
2022-12-09T09:59:23.803Z,999.43
2022-12-09T10:00:24.651Z,999.38
2022-12-09T10:01:23.902Z,999.42
2022-12-09T10:02:24.075Z,999.40
2022-12-09T10:03:23.994Z,999.42
2022-12-09T10:04:23.740Z,999.43
2022-12-09T10:05:23.994Z,999.44
2022-12-09T10:06:23.902Z,999.42
2022-12-09T10:07:23.882Z,999.40
2022-12-09T10:08:23.772Z,999.40
2022-12-09T10:09:23.766Z,999.37
2022-12-09T10:10:23.404Z,999.35
2022-12-09T10:11:23.429Z,999.35
2022-12-09T10:12:23.613Z,999.33
2022-12-09T10:13:23.340Z,999.36
2022-12-09T10:14:23.388Z,999.32
2022-12-09T10:15:23.291Z,999.28
2022-12-09T10:16:23.091Z,999.29
2022-12-09T10:17:23.192Z,999.27
2022-12-09T10:18:22.970Z,999.28
2022-12-09T10:19:23.596Z,999.29
2022-12-09T10:20:23.413Z,999.26
2022-12-09T10:21:23.205Z,999.24
2022-12-09T10:22:23.114Z,999.25
2022-12-09T10:23:23.400Z,999.22
2022-12-09T10:24:23.181Z,999.23
2022-12-09T10:25:23.069Z,999.21
2022-12-09T10:26:22.908Z,999.24
2022-12-09T10:27:23.149Z,999.27
2022-12-09T10:28:23.015Z,999.23
2022-12-09T10:29:22.680Z,999.22
2022-12-09T10:30:23.106Z,999.25
2022-12-09T10:31:22.763Z,999.22
2022-12-09T10:32:23.027Z,999.25
2022-12-09T10:33:22.727Z,999.23
2022-12-09T10:34:22.978Z,999.22
2022-12-09T10:35:22.698Z,999.19
2022-12-09T10:36:22.751Z,999.18
2022-12-09T10:37:22.428Z,999.20
2022-12-09T10:38:22.864Z,999.17
2022-12-09T10:39:22.782Z,999.19
2022-12-09T10:40:22.929Z,999.16
2022-12-09T10:41:22.504Z,999.21
2022-12-09T10:42:22.697Z,999.25
2022-12-09T10:43:22.262Z,999.24
2022-12-09T10:44:22.473Z,999.24
2022-12-09T10:45:22.383Z,999.23
2022-12-09T10:46:23.103Z,999.25
2022-12-09T10:47:22.327Z,999.24
2022-12-09T10:48:22.561Z,999.25
2022-12-09T10:49:22.873Z,999.24
2022-12-09T10:50:22.343Z,999.24
2022-12-09T10:51:22.829Z,999.23
2022-12-09T10:52:22.275Z,999.25
2022-12-09T10:53:22.107Z,999.24
2022-12-09T10:54:22.268Z,999.25
2022-12-09T10:55:22.288Z,999.27
2022-12-09T10:56:22.095Z,999.25
2022-12-09T10:57:22.133Z,999.26
2022-12-09T10:58:21.933Z,999.27
2022-12-09T10:59:22.401Z,999.25
2022-12-09T11:00:22.623Z,999.26
2022-12-09T11:01:22.121Z,999.28
2022-12-09T11:02:22.153Z,999.24
2022-12-09T11:03:21.924Z,999.26
2022-12-09T11:04:21.964Z,999.25
2022-12-09T11:05:21.969Z,999.24
2022-12-09T11:06:22.110Z,999.20
2022-12-09T11:07:21.947Z,999.23
2022-12-09T11:08:22.091Z,999.24
2022-12-09T11:09:22.427Z,999.22
2022-12-09T11:10:22.281Z,999.21
2022-12-09T11:11:21.777Z,999.20
2022-12-09T11:12:22.001Z,999.21
2022-12-09T11:13:21.684Z,999.21
2022-12-09T11:14:21.712Z,999.16
2022-12-09T11:15:21.961Z,999.14
2022-12-09T11:16:22.117Z,999.14
2022-12-09T11:17:21.831Z,999.13
2022-12-09T11:18:22.067Z,999.14
2022-12-09T11:19:21.536Z,999.10
2022-12-09T11:20:21.559Z,999.13
2022-12-09T11:21:21.910Z,999.11
2022-12-09T11:22:21.433Z,999.08
2022-12-09T11:23:21.500Z,999.06
2022-12-09T11:24:21.402Z,999.06
2022-12-09T11:25:21.778Z,999.03
2022-12-09T11:26:21.722Z,999.03
2022-12-09T11:27:21.220Z,999.04
2022-12-09T11:28:21.585Z,999.02
2022-12-09T11:29:22.161Z,998.99
2022-12-09T11:30:21.935Z,999.03
2022-12-09T11:31:30.222Z,998.99
2022-12-09T11:32:21.366Z,999.02
2022-12-09T11:33:21.237Z,999.01
2022-12-09T11:34:21.522Z,999.02
2022-12-09T11:35:21.484Z,999.01
2022-12-09T11:36:20.955Z,999.00
2022-12-09T11:37:20.924Z,998.99
2022-12-09T11:38:20.909Z,998.97
2022-12-09T11:39:20.880Z,999.00
2022-12-09T11:40:20.864Z,998.97
2022-12-09T11:41:20.835Z,998.96
2022-12-09T11:42:20.835Z,998.91
2022-12-09T11:43:20.783Z,998.94
2022-12-09T11:44:20.763Z,998.89
2022-12-09T11:45:20.732Z,998.92
2022-12-09T11:46:20.741Z,998.93
2022-12-09T11:47:20.683Z,998.92
2022-12-09T11:48:29.871Z,998.95
2022-12-09T11:49:20.638Z,998.93
2022-12-09T11:50:20.756Z,998.91
2022-12-09T11:51:20.588Z,998.96
2022-12-09T11:52:20.564Z,998.95
2022-12-09T11:53:20.539Z,998.94
2022-12-09T11:54:20.514Z,998.92
2022-12-09T11:55:20.494Z,998.94
2022-12-09T11:56:20.465Z,998.89
2022-12-09T11:57:20.439Z,998.88
2022-12-09T11:58:20.419Z,998.91
2022-12-09T11:59:20.392Z,998.88
2022-12-09T12:00:20.371Z,998.92
2022-12-09T12:01:20.341Z,998.88
2022-12-09T12:02:20.366Z,998.89
2022-12-09T12:03:20.362Z,998.87
2022-12-09T12:04:20.278Z,998.87
2022-12-09T12:05:21.927Z,998.89
2022-12-09T12:06:20.264Z,998.86
2022-12-09T12:07:20.204Z,998.87
2022-12-09T12:08:20.338Z,998.86
2022-12-09T12:09:20.143Z,998.89
2022-12-09T12:10:20.131Z,998.84
2022-12-09T12:11:20.106Z,998.88
2022-12-09T12:12:20.082Z,998.91
2022-12-09T12:13:20.050Z,998.84
2022-12-09T12:14:20.027Z,998.86
2022-12-09T12:15:20.002Z,998.83
2022-12-09T12:16:19.976Z,998.84
2022-12-09T12:17:19.986Z,998.81
2022-12-09T12:18:19.928Z,998.79
2022-12-09T12:19:19.897Z,998.80
2022-12-09T12:20:19.879Z,998.79
2022-12-09T12:21:19.860Z,998.77
2022-12-09T12:22:19.847Z,998.79
2022-12-09T12:23:19.800Z,998.80
2022-12-09T12:24:19.780Z,998.79
2022-12-09T12:25:20.078Z,998.79
2022-12-09T12:26:19.738Z,998.82
2022-12-09T12:27:19.710Z,998.76
2022-12-09T12:28:19.687Z,998.80